Time;durP1;ratioP1;P1;durP2;ratioP2;P2;SDS_P1;SDS_P2;PMS_P1;PMS_P2;Temp;Humidity;BMP_temperature;BMP_pressure;BME280_temperature;BME280_humidity;BME280_pressure;Samples;Min_cycle;Max_cycle;Signal;HPM_P1;HPM_P2
2022/12/28 00:01:10;;;;;;;4.38;2.88;;;1.70;99.90;;;;;;4903249;29;20287;-93
2022/12/28 00:03:37;;;;;;;3.88;3.30;;;1.70;99.90;;;;;;4904361;29;20212;-94
2022/12/28 00:06:07;;;;;;;4.35;2.75;;;1.70;99.90;;;;;;4904094;29;20243;-93
2022/12/28 00:08:33;;;;;;;4.95;3.50;;;1.70;99.90;;;;;;4904160;29;20187;-92
2022/12/28 00:11:01;;;;;;;4.10;2.83;;;1.70;99.90;;;;;;4902206;29;20226;-93
2022/12/28 00:13:30;;;;;;;3.90;2.75;;;1.70;99.90;;;;;;5214245;23;20238;-94
2022/12/28 00:15:59;;;;;;;6.55;3.85;;;1.70;99.90;;;;;;4903009;29;20210;-94
2022/12/28 00:18:30;;;;;;;3.00;2.60;;;1.70;99.90;;;;;;4884393;29;20200;-95
2022/12/28 00:20:58;;;;;;;4.88;3.58;;;1.70;99.90;;;;;;4884988;29;20235;-94
2022/12/28 00:23:31;;;;;;;6.07;3.55;;;1.60;99.90;;;;;;4885040;29;20203;-95
2022/12/28 05:16:57;;;;;;;1.25;1.10;;;4.10;99.90;;;;;;1217283;23;20491;-91
2022/12/28 08:25:48;;;;;;;3.80;1.17;;;4.70;99.90;;;;;;556432;23;20601;-91
2022/12/28 08:28:14;;;;;;;1.55;1.45;;;4.70;99.90;;;;;;4931952;29;20223;-94
2022/12/28 08:30:42;;;;;;;1.70;1.60;;;4.70;99.90;;;;;;4934662;29;20226;-94
2022/12/28 08:33:09;;;;;;;2.45;1.40;;;4.80;99.90;;;;;;4941417;29;20270;-93
2022/12/28 08:35:38;;;;;;;4.88;1.70;;;4.80;99.90;;;;;;4941683;29;20194;-94
2022/12/28 08:38:05;;;;;;;1.98;1.30;;;4.90;99.90;;;;;;4941225;29;20286;-93
2022/12/28 08:40:32;;;;;;;1.55;1.20;;;5.00;99.90;;;;;;4941282;29;20278;-92
2022/12/28 08:43:10;;;;;;;1.75;1.30;;;5.10;99.90;;;;;;4941970;29;20262;-93
2022/12/28 08:45:37;;;;;;;1.30;1.20;;;5.10;99.90;;;;;;4939216;29;20213;-94
2022/12/28 08:48:04;;;;;;;2.15;1.08;;;5.20;99.90;;;;;;4938282;29;20241;-93
2022/12/28 08:50:34;;;;;;;1.00;0.90;;;5.30;99.90;;;;;;4937534;29;20222;-94
2022/12/28 08:53:04;;;;;;;1.40;1.20;;;5.30;99.90;;;;;;4938575;29;20206;-94
2022/12/28 08:55:34;;;;;;;1.45;1.20;;;5.40;99.90;;;;;;4939055;29;20262;-94
2022/12/28 08:58:13;;;;;;;2.90;1.25;;;5.50;99.90;;;;;;4937942;29;20222;-94
2022/12/28 09:00:41;;;;;;;2.45;1.30;;;5.60;99.90;;;;;;4935958;29;20220;-93
2022/12/28 09:03:08;;;;;;;1.98;1.40;;;5.80;99.90;;;;;;4935831;29;20296;-94
2022/12/28 09:05:37;;;;;;;2.35;1.55;;;5.90;99.90;;;;;;4936304;29;20286;-93
2022/12/28 09:08:04;;;;;;;3.50;1.55;;;6.10;99.90;;;;;;4936621;29;20240;-94
2022/12/28 09:10:31;;;;;;;1.00;0.90;;;6.30;99.90;;;;;;4937185;29;20317;-94
2022/12/28 09:12:58;;;;;;;1.23;1.00;;;6.40;99.90;;;;;;4937335;29;20270;-93
2022/12/28 09:15:27;;;;;;;1.50;1.10;;;6.50;99.90;;;;;;4937749;29;20275;-94
2022/12/28 09:17:54;;;;;;;1.20;1.10;;;6.50;99.90;;;;;;4938074;29;20283;-94
2022/12/28 09:20:22;;;;;;;1.95;1.30;;;6.60;99.90;;;;;;4937301;29;20249;-94
2022/12/28 10:12:14;;;;;;;1.63;1.05;;;13.30;99.90;;;;;;3785588;23;20251;-94
2022/12/28 10:14:41;;;;;;;1.13;1.02;;;14.20;99.90;;;;;;4934652;29;20287;-93
2022/12/28 10:17:09;;;;;;;1.60;0.90;;;14.00;99.90;;;;;;4932941;29;20221;-92
2022/12/28 10:19:36;;;;;;;1.92;0.90;;;13.40;99.90;;;;;;4938419;29;20234;-92
2022/12/28 10:22:06;;;;;;;1.17;1.00;;;12.40;99.90;;;;;;4938422;29;20205;-92
2022/12/28 10:24:34;;;;;;;2.35;1.08;;;11.70;99.90;;;;;;4938433;29;20193;-93
2022/12/28 10:27:07;;;;;;;1.52;1.00;;;10.90;99.90;;;;;;4938601;29;20190;-94
2022/12/28 10:29:34;;;;;;;1.17;1.00;;;10.50;99.90;;;;;;4940509;29;20237;-95
2022/12/28 10:32:05;;;;;;;2.25;1.48;;;10.30;99.90;;;;;;4940831;29;20206;-94
2022/12/28 10:34:35;;;;;;;1.33;1.00;;;10.60;99.90;;;;;;4941600;29;20204;-95
2022/12/28 10:37:34;;;;;;;1.40;1.02;;;10.70;99.90;;;;;;4941210;29;20257;-95
2022/12/28 10:40:06;;;;;;;1.30;1.17;;;10.80;99.90;;;;;;4939413;29;20258;-94
2022/12/28 10:42:40;;;;;;;1.25;1.15;;;11.00;99.90;;;;;;4940121;29;20214;-92
2022/12/28 10:47:58;;;;;;;1.65;1.30;;;11.60;99.90;;;;;;4940971;29;20241;-93
2022/12/28 10:50:50;;;;;;;1.85;1.23;;;11.60;99.90;;;;;;4939613;29;20289;-93
2022/12/28 11:03:27;;;;;;;1.30;1.08;;;10.40;99.90;;;;;;4941780;29;20182;-94
2022/12/28 11:09:27;;;;;;;1.40;1.13;;;10.80;99.90;;;;;;4942025;29;20196;-94
2022/12/28 12:48:03;;;;;;;2.25;1.20;;;10.30;99.90;;;;;;3484708;23;20238;-93
2022/12/28 12:50:57;;;;;;;1.50;1.20;;;10.10;99.90;;;;;;4925117;29;20233;-92
2022/12/28 12:53:45;;;;;;;3.90;1.25;;;9.90;99.90;;;;;;4932025;29;20257;-93
2022/12/28 12:56:25;;;;;;;1.17;1.08;;;9.80;99.90;;;;;;4931992;29;20213;-93
2022/12/28 12:59:04;;;;;;;1.65;1.00;;;9.70;99.90;;;;;;4932284;29;20224;-93
2022/12/28 13:01:42;;;;;;;1.20;1.10;;;9.60;99.90;;;;;;4931544;29;20655;-93
2022/12/28 13:04:19;;;;;;;1.27;1.17;;;9.40;99.90;;;;;;4932563;29;20216;-94
2022/12/28 13:06:48;;;;;;;1.40;1.30;;;9.30;99.90;;;;;;4933200;29;20216;-93
2022/12/28 13:09:18;;;;;;;1.08;0.93;;;9.20;99.90;;;;;;4930162;29;20212;-93
2022/12/28 13:11:46;;;;;;;1.00;0.90;;;9.20;99.90;;;;;;4929153;29;20216;-93
2022/12/28 13:14:21;;;;;;;1.50;1.13;;;9.10;99.90;;;;;;4928768;29;20214;-93
2022/12/28 13:16:50;;;;;;;1.52;1.13;;;9.00;99.90;;;;;;4937087;28;20249;-94
2022/12/28 13:19:24;;;;;;;1.25;1.15;;;9.00;99.90;;;;;;4939712;28;20253;-94
2022/12/28 13:29:40;;;;;;;1.92;1.48;;;8.80;99.90;;;;;;678011;23;21777;-90
2022/12/28 13:32:25;;;;;;;1.83;1.17;;;8.80;99.90;;;;;;4931446;29;20218;-92
2022/12/28 13:34:53;;;;;;;1.30;1.10;;;8.80;99.90;;;;;;4936569;29;20190;-93
2022/12/28 13:37:21;;;;;;;1.48;1.38;;;8.70;99.90;;;;;;4936230;29;20238;-93
2022/12/28 13:39:48;;;;;;;1.05;0.88;;;8.60;99.90;;;;;;4930345;29;20223;-94
2022/12/28 13:42:18;;;;;;;2.67;1.35;;;8.60;99.90;;;;;;4938851;29;20193;-92
2022/12/28 13:44:48;;;;;;;2.38;1.50;;;8.60;99.90;;;;;;4940048;29;20212;-92
2022/12/28 13:47:42;;;;;;;2.05;1.23;;;8.50;99.90;;;;;;4939716;29;20266;-93
2022/12/28 13:50:15;;;;;;;1.55;1.40;;;8.50;99.90;;;;;;4935951;29;20320;-93
2022/12/28 14:44:06;;;;;;;2.45;1.30;;;8.20;99.90;;;;;;4251030;27;20274;-93
2022/12/28 14:46:40;;;;;;;1.58;1.20;;;8.20;99.90;;;;;;4911162;29;20293;-94
2022/12/28 14:49:36;;;;;;;1.40;1.30;;;8.10;99.90;;;;;;4923708;29;20173;-95
2022/12/28 14:52:37;;;;;;;2.00;1.23;;;8.10;99.90;;;;;;4904924;29;20230;-93
2022/12/28 14:55:28;;;;;;;1.55;1.10;;;8.10;99.90;;;;;;4886131;29;20300;-95
2022/12/28 14:58:03;;;;;;;1.50;1.30;;;8.00;99.90;;;;;;4883875;29;20192;-95
2022/12/28 15:00:34;;;;;;;1.40;1.30;;;8.10;99.90;;;;;;4885530;29;20242;-94
2022/12/28 15:03:17;;;;;;;1.50;1.40;;;8.10;99.90;;;;;;4886661;29;20174;-94
2022/12/28 15:05:46;;;;;;;1.10;1.00;;;8.00;99.90;;;;;;4879846;29;20194;-94
2022/12/28 15:08:14;;;;;;;1.65;1.33;;;8.00;99.90;;;;;;4881182;29;20224;-94
2022/12/28 15:10:48;;;;;;;1.88;1.15;;;8.00;99.90;;;;;;4882763;29;20224;-94
2022/12/28 15:13:17;;;;;;;2.35;1.20;;;8.00;99.90;;;;;;4884898;29;20202;-93
2022/12/28 15:15:55;;;;;;;4.15;2.65;;;7.90;99.90;;;;;;4882713;29;20210;-93
2022/12/28 15:29:54;;;;;;;1.77;1.50;;;7.80;99.90;;;;;;4900579;29;20213;-92
2022/12/28 15:32:23;;;;;;;2.35;1.58;;;7.80;99.90;;;;;;4901523;29;20206;-93
2022/12/28 16:50:00;;;;;;;2.30;1.67;;;7.30;99.90;;;;;;4869002;29;20232;-94
2022/12/28 16:52:31;;;;;;;3.03;1.73;;;7.40;99.90;;;;;;4882388;29;20581;-96
2022/12/28 16:54:59;;;;;;;4.30;2.03;;;7.30;99.90;;;;;;4869428;29;20308;-95
2022/12/28 16:57:30;;;;;;;1.77;1.50;;;7.30;99.90;;;;;;4863546;29;20250;-96
2022/12/28 16:59:58;;;;;;;3.08;2.05;;;7.30;99.90;;;;;;4863670;29;20248;-95
2022/12/28 17:02:24;;;;;;;2.28;2.08;;;7.30;99.90;;;;;;4863679;29;20204;-96
2022/12/28 17:04:51;;;;;;;2.40;1.38;;;7.30;99.90;;;;;;4863655;29;20211;-95
2022/12/28 17:07:21;;;;;;;1.30;1.13;;;7.30;99.90;;;;;;4864378;29;20233;-95
2022/12/28 17:12:27;;;;;;;1.48;1.30;;;7.20;99.90;;;;;;5394957;23;21375;-91
2022/12/28 17:14:56;;;;;;;1.77;1.45;;;7.20;99.90;;;;;;4937515;29;20255;-92
2022/12/28 17:17:24;;;;;;;1.55;1.30;;;7.20;99.90;;;;;;5025192;23;20237;-92
2022/12/28 17:19:51;;;;;;;2.05;1.80;;;7.20;99.90;;;;;;4935629;29;20233;-92
2022/12/28 17:22:20;;;;;;;2.22;1.60;;;7.10;99.90;;;;;;4937350;29;20232;-92
2022/12/28 17:24:51;;;;;;;2.92;2.05;;;7.00;99.90;;;;;;4938269;29;20227;-92
2022/12/28 17:27:21;;;;;;;2.03;1.80;;;7.00;99.90;;;;;;4939507;29;20197;-91
2022/12/28 17:29:49;;;;;;;1.50;1.40;;;7.00;99.90;;;;;;4939360;29;20231;-91
2022/12/28 17:32:16;;;;;;;2.75;1.70;;;7.00;99.90;;;;;;4941934;29;20202;-93
2022/12/28 17:34:44;;;;;;;2.95;1.85;;;7.00;99.90;;;;;;4939348;29;20179;-92
2022/12/28 17:37:13;;;;;;;1.65;1.45;;;7.00;99.90;;;;;;4941719;29;20238;-91
2022/12/28 17:39:58;;;;;;;1.98;1.75;;;7.00;99.90;;;;;;4941801;29;20225;-94
2022/12/28 17:42:35;;;;;;;2.13;1.50;;;6.90;99.90;;;;;;4941974;29;20201;-93
2022/12/28 17:45:02;;;;;;;1.60;1.50;;;6.90;99.90;;;;;;4930364;28;20227;-93
2022/12/28 17:47:30;;;;;;;3.25;2.53;;;6.80;99.90;;;;;;4942431;28;20254;-92
2022/12/28 17:52:35;;;;;;;2.22;1.92;;;6.70;99.90;;;;;;5094891;23;20215;-91
2022/12/28 17:55:09;;;;;;;2.15;1.80;;;6.60;99.90;;;;;;4940265;29;20214;-93
2022/12/28 17:57:39;;;;;;;2.17;1.98;;;6.40;99.90;;;;;;4942256;29;20261;-94
2022/12/28 18:00:11;;;;;;;2.22;2.03;;;6.40;99.90;;;;;;4941748;29;20234;-93
2022/12/28 18:02:40;;;;;;;2.13;1.90;;;6.30;99.90;;;;;;4995100;23;20226;-93
2022/12/28 18:05:08;;;;;;;1.85;1.63;;;6.20;99.90;;;;;;4938570;28;20198;-94
2022/12/28 18:07:37;;;;;;;2.85;2.30;;;6.20;99.90;;;;;;4934033;29;20580;-91
2022/12/28 18:10:06;;;;;;;2.95;2.05;;;6.10;99.90;;;;;;4936273;28;20237;-95
2022/12/28 18:12:33;;;;;;;3.78;2.33;;;6.00;99.90;;;;;;5005651;23;20245;-93
2022/12/28 18:14:59;;;;;;;2.70;2.30;;;6.00;99.90;;;;;;4940857;29;20198;-93
2022/12/28 18:17:28;;;;;;;4.90;2.20;;;5.90;99.90;;;;;;5000614;23;20218;-94
2022/12/28 18:19:58;;;;;;;2.05;1.60;;;5.90;99.90;;;;;;4939749;28;20249;-91
2022/12/28 18:22:24;;;;;;;4.13;2.80;;;5.80;99.90;;;;;;4939777;28;20234;-93
2022/12/28 18:24:52;;;;;;;3.70;2.75;;;5.80;99.90;;;;;;4935472;28;20190;-92
2022/12/28 18:27:21;;;;;;;2.20;2.00;;;5.80;99.90;;;;;;4928166;29;20209;-94
2022/12/28 18:29:48;;;;;;;3.03;2.45;;;5.70;99.90;;;;;;4945538;28;20277;-92
2022/12/28 18:32:15;;;;;;;2.97;2.20;;;5.70;99.90;;;;;;4939684;28;20220;-92
2022/12/28 18:34:42;;;;;;;2.50;2.30;;;5.60;99.90;;;;;;4939503;29;20201;-93
2022/12/28 18:37:09;;;;;;;2.97;2.13;;;5.60;99.90;;;;;;4940237;29;20186;-91
2022/12/28 18:39:36;;;;;;;5.10;2.33;;;5.60;99.90;;;;;;4939491;29;20234;-92
2022/12/28 18:42:03;;;;;;;4.68;2.70;;;5.50;99.90;;;;;;4940022;29;20200;-92
2022/12/28 18:44:36;;;;;;;2.50;2.00;;;5.50;99.90;;;;;;4940945;29;20193;-94
2022/12/28 18:47:04;;;;;;;3.00;2.35;;;5.50;99.90;;;;;;4942527;29;20190;-94
2022/12/28 18:49:31;;;;;;;2.83;2.38;;;5.50;99.90;;;;;;4942011;29;20246;-95
2022/12/28 18:52:01;;;;;;;2.35;2.15;;;5.50;99.90;;;;;;4941522;29;20209;-95
2022/12/28 18:54:29;;;;;;;2.05;1.85;;;5.60;99.90;;;;;;4942043;29;20186;-94
2022/12/28 18:57:00;;;;;;;4.65;3.20;;;5.60;99.90;;;;;;4942434;29;20213;-94
2022/12/28 18:59:28;;;;;;;2.50;2.30;;;5.60;99.90;;;;;;4940901;29;20210;-94
2022/12/28 19:01:58;;;;;;;3.70;2.10;;;5.50;99.90;;;;;;4942097;29;20182;-95
2022/12/28 19:04:42;;;;;;;2.70;2.50;;;5.50;99.90;;;;;;4943056;29;20205;-93
2022/12/28 20:01:46;;;;;;;6.18;3.00;;;4.40;99.90;;;;;;4901698;29;20246;-94
2022/12/28 20:04:19;;;;;;;2.65;2.42;;;4.40;99.90;;;;;;4902925;29;20231;-94
2022/12/28 20:06:47;;;;;;;2.20;1.90;;;4.30;99.90;;;;;;4902519;29;20225;-94
2022/12/28 20:09:15;;;;;;;3.85;3.05;;;4.30;99.90;;;;;;4902108;29;20195;-94
2022/12/28 20:11:56;;;;;;;3.42;2.60;;;4.30;99.90;;;;;;4902240;29;20192;-95
2022/12/28 20:14:23;;;;;;;2.42;2.22;;;4.20;99.90;;;;;;4901505;29;20962;-93
2022/12/28 20:16:51;;;;;;;4.80;2.75;;;4.20;99.90;;;;;;4901573;29;20187;-92
2022/12/28 20:19:19;;;;;;;4.18;2.72;;;4.20;99.90;;;;;;4901460;29;20192;-93
2022/12/28 20:21:49;;;;;;;5.20;3.20;;;4.10;99.90;;;;;;4901755;29;20271;-93
2022/12/28 20:24:20;;;;;;;3.97;3.17;;;4.10;99.90;;;;;;4901037;29;20259;-94
2022/12/28 20:26:48;;;;;;;4.70;3.40;;;4.10;99.90;;;;;;4902146;29;20183;-96
2022/12/28 20:29:27;;;;;;;4.65;3.22;;;4.00;99.90;;;;;;4903020;29;20184;-94
2022/12/28 20:39:54;;;;;;;2.30;2.10;;;4.10;99.90;;;;;;5658117;23;20213;-94
